createdAt,value
2019-04-25T00:00:12.981Z,87.06
2019-04-25T00:01:18.484Z,87.44
2019-04-25T00:02:23.999Z,87.63
2019-04-25T00:03:29.507Z,87.82
2019-04-25T00:04:35.015Z,87.44
2019-04-25T00:05:42.158Z,87.06
2019-04-25T00:06:46.744Z,87.82
2019-04-25T00:07:51.557Z,87.63
2019-04-25T00:08:57.072Z,88.49
2019-04-25T00:10:02.581Z,87.44
2019-04-25T00:11:08.092Z,88.11
2019-04-25T00:12:13.597Z,87.63
2019-04-25T00:13:19.109Z,87.44
2019-04-25T00:14:24.639Z,86.87
2019-04-25T00:15:30.138Z,87.06
2019-04-25T00:16:35.648Z,86.96
2019-04-25T00:17:42.312Z,87.25
2019-04-25T00:18:46.669Z,86.96
2019-04-25T00:19:52.838Z,87.25
2019-04-25T00:20:57.699Z,87.06
2019-04-25T00:22:03.201Z,86.96
2019-04-25T00:23:08.715Z,86.20
2019-04-25T00:24:14.230Z,85.82
2019-04-25T00:25:19.730Z,86.58
2019-04-25T00:26:25.243Z,87.25
2019-04-25T00:27:32.004Z,86.30
2019-04-25T00:28:36.275Z,86.96
2019-04-25T00:29:43.849Z,86.39
2019-04-25T00:30:48.053Z,86.49
2019-04-25T00:31:53.268Z,86.96
2019-04-25T00:32:58.324Z,86.30
2019-04-25T00:34:03.828Z,86.87
2019-04-25T00:35:09.334Z,86.39
2019-04-25T00:36:14.850Z,85.82
2019-04-25T00:37:20.402Z,86.10
2019-04-25T00:38:25.877Z,87.25
2019-04-25T00:39:31.946Z,86.58
2019-04-25T00:40:36.906Z,87.15
2019-04-25T00:41:44.362Z,86.68
2019-04-25T00:42:48.263Z,86.96
2019-04-25T00:43:53.427Z,87.35
2019-04-25T00:44:58.938Z,87.06
2019-04-25T00:46:04.461Z,87.15
2019-04-25T00:47:11.607Z,86.96
2019-04-25T00:48:15.482Z,86.96
2019-04-25T00:49:22.045Z,86.39
2019-04-25T00:50:26.493Z,86.87
2019-04-25T00:51:32.006Z,87.06
2019-04-25T00:52:37.518Z,86.96
2019-04-25T00:53:43.738Z,86.20
2019-04-25T00:54:48.538Z,86.68
2019-04-25T00:55:54.053Z,86.39
2019-04-25T00:56:59.569Z,86.68
2019-04-25T00:58:05.075Z,86.68
2019-04-25T00:59:11.854Z,87.06
2019-04-25T01:00:16.108Z,85.63
2019-04-25T01:01:21.866Z,85.82
2019-04-25T01:02:27.126Z,86.01
2019-04-25T01:03:32.626Z,85.91
2019-04-25T01:04:38.140Z,85.72
2019-04-25T01:05:44.422Z,85.72
2019-04-25T01:06:49.678Z,86.10
2019-04-25T01:07:54.685Z,86.96
2019-04-25T01:09:01.534Z,87.25
2019-04-25T01:10:05.695Z,86.87
2019-04-25T01:11:11.514Z,87.06
2019-04-25T01:12:16.718Z,86.58
2019-04-25T01:13:22.377Z,86.01
2019-04-25T01:14:27.748Z,84.96
2019-04-25T01:15:33.256Z,85.05
2019-04-25T01:16:38.765Z,85.15
2019-04-25T01:17:45.343Z,85.15
2019-04-25T01:18:49.803Z,84.96
2019-04-25T01:19:57.943Z,85.25
2019-04-25T01:21:00.813Z,85.82
2019-04-25T01:22:06.336Z,86.49
2019-04-25T01:23:11.830Z,86.30
2019-04-25T01:24:17.342Z,86.96
2019-04-25T01:25:23.415Z,86.68
2019-04-25T01:26:28.366Z,86.58
2019-04-25T01:27:33.885Z,86.68
2019-04-25T01:28:39.396Z,86.68
2019-04-25T01:29:46.224Z,86.39
2019-04-25T01:30:50.415Z,85.82
2019-04-25T01:31:56.384Z,85.72
2019-04-25T01:33:01.432Z,85.82
2019-04-25T01:34:06.943Z,85.72
2019-04-25T01:35:13.962Z,86.49
2019-04-25T01:36:17.967Z,86.10
2019-04-25T01:37:23.970Z,86.01
2019-04-25T01:38:28.995Z,85.82
2019-04-25T01:39:34.500Z,85.72
2019-04-25T01:40:40.012Z,86.58
2019-04-25T01:41:45.535Z,86.73
2019-04-25T01:42:51.558Z,85.77
2019-04-25T01:43:58.350Z,85.49
2019-04-25T01:45:03.954Z,84.92
2019-04-25T01:46:07.575Z,85.97
2019-04-25T01:47:14.066Z,86.35
2019-04-25T01:48:18.597Z,85.58
2019-04-25T01:49:24.101Z,86.44
2019-04-25T01:50:29.623Z,86.16
2019-04-25T01:51:35.128Z,86.92
2019-04-25T01:52:40.644Z,86.54
2019-04-25T01:53:46.152Z,87.21
2019-04-25T01:54:53.126Z,86.92
2019-04-25T01:56:02.701Z,87.11
2019-04-25T01:57:04.162Z,87.11
2019-04-25T01:58:08.192Z,86.82
2019-04-25T01:59:15.168Z,87.21
2019-04-25T02:00:19.216Z,87.30
2019-04-25T02:01:24.728Z,87.59
2019-04-25T02:02:30.248Z,87.49
2019-04-25T02:03:35.745Z,87.97
2019-04-25T02:04:41.267Z,87.87
2019-04-25T02:05:46.770Z,87.97
2019-04-25T02:06:54.349Z,88.16
2019-04-25T02:07:57.792Z,88.35
2019-04-25T02:09:04.214Z,88.64
2019-04-25T02:10:08.810Z,88.35
2019-04-25T02:11:14.325Z,88.83
2019-04-25T02:12:20.303Z,88.92
2019-04-25T02:13:25.341Z,88.73
2019-04-25T02:14:30.858Z,88.73
2019-04-25T02:15:36.366Z,88.26
2019-04-25T02:16:41.884Z,88.35
2019-04-25T02:17:47.391Z,88.16
2019-04-25T02:18:54.912Z,87.49
2019-04-25T02:19:58.410Z,87.59
2019-04-25T02:21:04.494Z,87.97
2019-04-25T02:22:09.433Z,87.97
2019-04-25T02:23:14.942Z,87.40
2019-04-25T02:24:20.453Z,87.49
2019-04-25T02:25:25.967Z,87.49
2019-04-25T02:26:31.474Z,87.49
2019-04-25T02:27:36.989Z,87.68
2019-04-25T02:28:43.729Z,87.97
2019-04-25T02:29:48.014Z,87.49
2019-04-25T02:30:58.028Z,87.59
2019-04-25T02:32:02.873Z,87.40
2019-04-25T02:33:08.794Z,87.49
2019-04-25T02:34:10.063Z,87.40
2019-04-25T02:35:15.571Z,86.63
2019-04-25T02:36:21.076Z,87.11
2019-04-25T02:37:26.591Z,86.63
2019-04-25T02:38:34.038Z,86.63
2019-04-25T02:39:37.672Z,87.11
2019-04-25T02:40:45.396Z,86.25
2019-04-25T02:41:48.637Z,86.35
2019-04-25T02:42:56.630Z,86.82
2019-04-25T02:44:03.773Z,85.58
2019-04-25T02:45:08.421Z,85.87
2019-04-25T02:46:10.675Z,86.44
2019-04-25T02:47:16.191Z,86.16
2019-04-25T02:48:23.989Z,85.77
2019-04-25T02:49:35.414Z,85.49
2019-04-25T02:50:34.374Z,85.15
2019-04-25T02:51:38.236Z,84.77
2019-04-25T02:52:44.361Z,85.15
2019-04-25T02:53:49.255Z,85.44
2019-04-25T02:54:56.925Z,85.72
2019-04-25T02:56:00.279Z,85.44
2019-04-25T02:57:08.052Z,84.96
2019-04-25T02:58:11.302Z,84.86
2019-04-25T02:59:16.810Z,84.58
2019-04-25T03:00:24.641Z,84.06
2019-04-25T03:01:27.837Z,84.10
2019-04-25T03:02:34.393Z,84.48
2019-04-25T03:03:38.849Z,84.82
2019-04-25T03:04:44.726Z,83.87
2019-04-25T03:05:49.901Z,83.29
2019-04-25T03:06:55.708Z,83.72
2019-04-25T03:08:01.721Z,83.91
2019-04-25T03:09:08.131Z,83.91
2019-04-25T03:10:14.603Z,83.91
2019-04-25T03:11:17.437Z,84.29
2019-04-25T03:12:32.436Z,83.62
2019-04-25T03:13:28.457Z,83.81
2019-04-25T03:14:35.140Z,83.43
2019-04-25T03:15:39.482Z,83.14
2019-04-25T03:16:45.114Z,83.43
2019-04-25T03:17:50.504Z,82.86
2019-04-25T03:18:56.012Z,83.14
2019-04-25T03:20:03.975Z,82.95
2019-04-25T03:21:13.487Z,83.05
2019-04-25T03:22:14.902Z,82.38
2019-04-25T03:23:18.050Z,82.57
2019-04-25T03:24:25.010Z,82.19
2019-04-25T03:25:29.080Z,82.57
2019-04-25T03:26:40.357Z,82.67
2019-04-25T03:27:40.099Z,82.29
2019-04-25T03:28:45.613Z,82.57
2019-04-25T03:29:51.118Z,82.29
2019-04-25T03:30:57.292Z,82.38
2019-04-25T03:32:04.081Z,82.57
2019-04-25T03:33:11.885Z,82.86
2019-04-25T03:34:16.943Z,82.38
2019-04-25T03:35:18.691Z,82.57
2019-04-25T03:36:24.200Z,82.00
2019-04-25T03:37:29.705Z,81.90
2019-04-25T03:38:35.217Z,81.81
2019-04-25T03:39:40.721Z,81.62
2019-04-25T03:40:46.232Z,82.00
2019-04-25T03:41:51.743Z,82.09
2019-04-25T03:42:57.258Z,82.00
2019-04-25T03:44:04.535Z,81.90
2019-04-25T03:45:09.176Z,81.62
2019-04-25T03:46:14.234Z,81.52
2019-04-25T03:47:19.296Z,81.71
2019-04-25T03:48:25.240Z,82.00
2019-04-25T03:49:30.325Z,81.43
2019-04-25T03:50:35.833Z,81.62
2019-04-25T03:51:41.345Z,81.62
2019-04-25T03:52:46.857Z,81.43
2019-04-25T03:53:53.554Z,81.90
2019-04-25T03:54:57.878Z,81.33
2019-04-25T03:56:05.838Z,81.43
2019-04-25T03:57:08.903Z,81.81
2019-04-25T03:58:14.702Z,81.71
2019-04-25T03:59:19.919Z,81.62
2019-04-25T04:00:25.434Z,81.14
2019-04-25T04:01:30.941Z,81.52
2019-04-25T04:02:36.466Z,81.43
2019-04-25T04:03:43.853Z,81.43
2019-04-25T04:04:47.477Z,81.33
2019-04-25T04:05:54.035Z,80.85
2019-04-25T04:06:58.494Z,81.04
2019-04-25T04:08:05.191Z,81.14
2019-04-25T04:09:09.814Z,80.95
2019-04-25T04:10:15.524Z,81.43
2019-04-25T04:11:20.550Z,81.43
2019-04-25T04:12:26.057Z,81.52
2019-04-25T04:13:31.570Z,81.24
2019-04-25T04:14:37.078Z,80.76
2019-04-25T04:15:43.390Z,81.33
2019-04-25T04:16:48.099Z,80.57
2019-04-25T04:17:53.724Z,80.19
2019-04-25T04:18:59.124Z,80.47
2019-04-25T04:20:05.585Z,80.38
2019-04-25T04:21:11.092Z,80.47
2019-04-25T04:22:16.265Z,80.47
2019-04-25T04:23:21.181Z,81.04
2019-04-25T04:24:26.683Z,81.24
2019-04-25T04:25:33.599Z,80.47
2019-04-25T04:26:37.702Z,80.66
2019-04-25T04:27:43.777Z,80.28
2019-04-25T04:28:48.720Z,79.90
2019-04-25T04:29:54.376Z,80.28
2019-04-25T04:30:59.744Z,80.09
2019-04-25T04:32:06.841Z,80.09
2019-04-25T04:33:22.955Z,79.61
2019-04-25T04:34:16.987Z,80.47
2019-04-25T04:35:23.370Z,81.52
2019-04-25T04:36:27.303Z,81.14
2019-04-25T04:37:33.281Z,80.66
2019-04-25T04:38:38.331Z,80.28
2019-04-25T04:39:43.835Z,80.76
2019-04-25T04:40:49.346Z,80.85
2019-04-25T04:41:55.466Z,80.38
2019-04-25T04:43:00.374Z,80.38
2019-04-25T04:44:05.884Z,80.19
2019-04-25T04:45:12.382Z,80.28
2019-04-25T04:46:18.572Z,80.19
2019-04-25T04:47:23.580Z,80.09
2019-04-25T04:48:27.925Z,80.28
2019-04-25T04:49:34.100Z,80.47
2019-04-25T04:50:38.946Z,80.28
2019-04-25T04:51:44.485Z,80.28
2019-04-25T04:52:49.971Z,80.19
2019-04-25T04:53:55.478Z,80.19
2019-04-25T04:55:07.770Z,79.43
2019-04-25T04:56:06.515Z,79.23
2019-04-25T04:57:25.728Z,79.14
2019-04-25T04:58:17.688Z,79.14
2019-04-25T04:59:24.696Z,79.52
2019-04-25T05:00:28.552Z,79.23
2019-04-25T05:01:34.062Z,79.90
2019-04-25T05:02:39.573Z,79.61
2019-04-25T05:03:45.082Z,78.85
2019-04-25T05:04:50.599Z,79.17
2019-04-25T05:05:56.111Z,79.90
2019-04-25T05:07:01.616Z,78.99
2019-04-25T05:08:07.124Z,79.52
2019-04-25T05:09:15.167Z,79.17
2019-04-25T05:10:19.057Z,79.46
2019-04-25T05:11:25.415Z,79.65
2019-04-25T05:12:29.172Z,78.94
2019-04-25T05:13:34.690Z,79.46
2019-04-25T05:14:40.196Z,79.27
2019-04-25T05:15:45.712Z,78.99
2019-04-25T05:16:51.244Z,79.17
2019-04-25T05:17:56.732Z,79.56
2019-04-25T05:19:03.700Z,79.36
2019-04-25T05:20:07.750Z,79.65
2019-04-25T05:21:14.849Z,79.65
2019-04-25T05:22:18.773Z,78.99
2019-04-25T05:23:24.915Z,79.36
2019-04-25T05:24:29.804Z,79.17
2019-04-25T05:25:35.311Z,78.99
2019-04-25T05:26:40.819Z,79.56
2019-04-25T05:27:59.567Z,78.99
2019-04-25T05:28:53.301Z,78.31
2019-04-25T05:29:57.353Z,79.08
2019-04-25T05:31:03.415Z,79.17
2019-04-25T05:32:08.379Z,79.17
2019-04-25T05:33:17.605Z,78.99
2019-04-25T05:34:19.698Z,78.60
2019-04-25T05:35:25.411Z,78.41
2019-04-25T05:36:30.429Z,76.69
2019-04-25T05:37:35.937Z,77.78
2019-04-25T05:38:41.452Z,78.45
2019-04-25T05:39:46.961Z,77.78
2019-04-25T05:40:53.904Z,78.16
2019-04-25T05:41:57.982Z,77.97
2019-04-25T05:43:03.495Z,77.97
2019-04-25T05:44:09.002Z,78.45
2019-04-25T05:45:16.053Z,78.26
2019-04-25T05:46:20.040Z,77.97
2019-04-25T05:47:26.111Z,78.74
2019-04-25T05:48:31.052Z,77.78
2019-04-25T05:49:36.561Z,77.78
2019-04-25T05:50:43.648Z,77.87
2019-04-25T05:51:47.582Z,78.07
2019-04-25T05:52:54.147Z,77.69
2019-04-25T05:53:58.615Z,77.11
2019-04-25T05:55:04.122Z,76.64
2019-04-25T05:56:09.630Z,75.39
2019-04-25T05:57:16.515Z,76.96
2019-04-25T05:58:20.656Z,77.06
2019-04-25T05:59:26.924Z,76.39
2019-04-25T06:00:31.682Z,74.48
2019-04-25T06:01:37.189Z,75.71
2019-04-25T06:02:44.281Z,76.67
2019-04-25T06:03:48.222Z,76.00
2019-04-25T06:04:53.725Z,75.71
2019-04-25T06:05:59.239Z,75.71
2019-04-25T06:07:05.685Z,76.57
2019-04-25T06:08:10.262Z,76.86
2019-04-25T06:09:15.780Z,75.91
2019-04-25T06:10:21.659Z,75.24
2019-04-25T06:11:26.800Z,74.19
2019-04-25T06:12:33.559Z,74.48
2019-04-25T06:13:37.825Z,74.57
2019-04-25T06:14:43.451Z,74.57
2019-04-25T06:15:48.849Z,75.14
2019-04-25T06:16:54.374Z,75.52
2019-04-25T06:17:59.867Z,75.24
2019-04-25T06:19:13.267Z,76.20
2019-04-25T06:20:10.895Z,74.95
2019-04-25T06:21:16.406Z,74.57
2019-04-25T06:22:24.358Z,74.41
2019-04-25T06:23:27.442Z,74.70
2019-04-25T06:24:34.322Z,75.37
2019-04-25T06:25:39.732Z,75.37
2019-04-25T06:26:43.967Z,74.51
2019-04-25T06:27:56.378Z,75.95
2019-04-25T06:28:59.596Z,74.99
2019-04-25T06:30:01.020Z,74.99
2019-04-25T06:31:10.152Z,74.99
2019-04-25T06:32:11.533Z,74.32
2019-04-25T06:33:17.080Z,73.75
2019-04-25T06:34:24.889Z,72.88
2019-04-25T06:35:28.074Z,73.08
2019-04-25T06:36:35.075Z,72.41
2019-04-25T06:37:39.093Z,73.08
2019-04-25T06:38:44.604Z,72.79
2019-04-25T06:39:50.116Z,72.31
2019-04-25T06:40:55.633Z,72.12
2019-04-25T06:42:01.136Z,72.79
2019-04-25T06:43:06.653Z,72.22
2019-04-25T06:44:13.685Z,71.64
2019-04-25T06:45:17.682Z,70.91
2019-04-25T06:46:24.826Z,71.93
2019-04-25T06:47:29.536Z,71.87
2019-04-25T06:48:35.162Z,71.48
2019-04-25T06:49:39.727Z,72.16
2019-04-25T06:50:45.236Z,73.11
2019-04-25T06:51:50.748Z,72.25
2019-04-25T06:52:56.266Z,71.87
2019-04-25T06:54:03.331Z,70.81
2019-04-25T06:55:07.298Z,71.01
2019-04-25T06:56:13.707Z,71.01
2019-04-25T06:57:18.337Z,71.97
2019-04-25T06:58:26.922Z,73.11
2019-04-25T06:59:30.104Z,72.54
2019-04-25T07:00:40.918Z,72.54
2019-04-25T07:01:40.361Z,71.77
2019-04-25T07:02:45.883Z,71.71
2019-04-25T07:03:51.391Z,70.34
2019-04-25T07:04:56.905Z,70.28
2019-04-25T07:06:03.302Z,71.14
2019-04-25T07:07:11.984Z,68.74
2019-04-25T07:08:13.439Z,70.09
2019-04-25T07:09:18.955Z,69.60
2019-04-25T07:10:26.121Z,69.13
2019-04-25T07:11:30.465Z,70.18
2019-04-25T07:12:36.040Z,70.37
2019-04-25T07:13:40.996Z,68.84
2019-04-25T07:14:46.518Z,68.07
2019-04-25T07:15:53.405Z,69.23
2019-04-25T07:16:57.543Z,69.03
2019-04-25T07:18:03.784Z,69.23
2019-04-25T07:19:08.568Z,68.55
2019-04-25T07:20:14.082Z,68.17
2019-04-25T07:21:19.588Z,68.21
2019-04-25T07:22:25.943Z,69.35
2019-04-25T07:23:30.613Z,68.78
2019-04-25T07:24:36.130Z,68.87
2019-04-25T07:25:41.642Z,68.30
2019-04-25T07:26:47.155Z,68.49
2019-04-25T07:27:53.425Z,68.87
2019-04-25T07:28:58.183Z,69.54
2019-04-25T07:30:04.110Z,68.87
2019-04-25T07:31:09.207Z,69.07
2019-04-25T07:32:14.722Z,67.72
2019-04-25T07:33:20.234Z,67.91
2019-04-25T07:34:26.544Z,67.63
2019-04-25T07:35:31.261Z,67.05
2019-04-25T07:36:37.344Z,67.54
2019-04-25T07:37:44.088Z,67.25
2019-04-25T07:38:47.799Z,66.58
2019-04-25T07:39:54.207Z,66.67
2019-04-25T07:40:58.825Z,66.58
2019-04-25T07:42:04.340Z,66.58
2019-04-25T07:43:09.851Z,66.86
2019-04-25T07:44:15.384Z,67.44
2019-04-25T07:45:20.876Z,67.54
2019-04-25T07:46:26.414Z,66.03
2019-04-25T07:47:31.931Z,64.89
2019-04-25T07:48:38.170Z,65.71
2019-04-25T07:49:43.368Z,65.62
2019-04-25T07:50:48.440Z,64.18
2019-04-25T07:51:53.954Z,64.40
2019-04-25T07:52:59.465Z,65.65
2019-04-25T07:54:04.986Z,65.17
2019-04-25T07:55:10.493Z,65.26
2019-04-25T07:56:16.016Z,64.31
2019-04-25T07:57:21.523Z,64.02
2019-04-25T07:58:38.198Z,65.36
2019-04-25T07:59:34.974Z,62.10
2019-04-25T08:00:38.074Z,63.64
2019-04-25T08:01:43.760Z,63.54
2019-04-25T08:02:49.089Z,64.02
2019-04-25T08:03:54.617Z,64.02
2019-04-25T08:05:00.110Z,64.22
2019-04-25T08:06:05.622Z,65.46
2019-04-25T08:07:11.148Z,65.46
2019-04-25T08:08:16.655Z,65.75
2019-04-25T08:09:22.224Z,66.55
2019-04-25T08:10:27.969Z,66.99
2019-04-25T08:11:34.126Z,67.32
2019-04-25T08:12:39.430Z,66.26
2019-04-25T08:13:44.218Z,66.45
2019-04-25T08:14:49.738Z,64.53
2019-04-25T08:15:55.246Z,64.63
2019-04-25T08:17:00.763Z,63.29
2019-04-25T08:18:06.276Z,64.05
2019-04-25T08:19:13.559Z,64.43
2019-04-25T08:20:17.304Z,64.34
2019-04-25T08:21:23.891Z,63.67
2019-04-25T08:22:28.326Z,64.05
2019-04-25T08:23:36.697Z,62.81
2019-04-25T08:24:39.360Z,63.00
2019-04-25T08:25:44.892Z,61.75
2019-04-25T08:26:50.394Z,61.18
2019-04-25T08:27:55.907Z,61.66
2019-04-25T08:29:01.421Z,62.71
2019-04-25T08:30:06.928Z,62.13
2019-04-25T08:31:13.546Z,62.71
2019-04-25T08:32:17.952Z,62.71
2019-04-25T08:33:23.792Z,61.94
2019-04-25T08:34:28.990Z,60.99
2019-04-25T08:35:35.486Z,62.90
2019-04-25T08:36:40.101Z,62.71
2019-04-25T08:37:45.527Z,62.84
2019-04-25T08:38:51.037Z,62.07
2019-04-25T08:39:56.558Z,62.23
2019-04-25T08:41:02.069Z,60.22
2019-04-25T08:42:07.573Z,61.49
2019-04-25T08:43:14.665Z,62.74
2019-04-25T08:44:18.607Z,63.12
2019-04-25T08:45:24.562Z,62.65
2019-04-25T08:46:29.632Z,63.79
2019-04-25T08:47:36.167Z,63.99
2019-04-25T08:48:40.667Z,63.12
2019-04-25T08:49:46.195Z,63.79
2019-04-25T08:50:51.689Z,63.89
2019-04-25T08:51:57.197Z,63.99
2019-04-25T08:53:03.974Z,63.79
2019-04-25T08:54:08.235Z,62.74
2019-04-25T08:55:14.243Z,64.09
2019-04-25T08:56:19.271Z,64.37
2019-04-25T08:57:25.607Z,64.37
2019-04-25T08:58:30.288Z,63.79
2019-04-25T08:59:41.925Z,62.16
2019-04-25T09:00:41.317Z,61.98
2019-04-25T09:01:46.834Z,62.93
2019-04-25T09:02:52.350Z,62.55
2019-04-25T09:03:57.855Z,63.22
2019-04-25T09:05:04.097Z,62.16
2019-04-25T09:06:08.888Z,63.12
2019-04-25T09:07:14.396Z,63.99
2019-04-25T09:08:19.914Z,64.09
2019-04-25T09:09:25.422Z,64.66
2019-04-25T09:10:30.932Z,63.70
2019-04-25T09:11:38.050Z,63.22
2019-04-25T09:12:41.966Z,63.99
2019-04-25T09:13:47.498Z,63.42
2019-04-25T09:14:54.186Z,64.66
2019-04-25T09:15:58.511Z,63.03
2019-04-25T09:17:04.027Z,63.22
2019-04-25T09:18:09.541Z,62.84
2019-04-25T09:19:15.594Z,62.74
2019-04-25T09:20:20.565Z,62.84
2019-04-25T09:21:26.074Z,62.45
2019-04-25T09:22:31.603Z,62.74
2019-04-25T09:23:37.915Z,63.73
2019-04-25T09:24:44.125Z,64.79
2019-04-25T09:25:48.140Z,66.03
2019-04-25T09:26:54.054Z,65.46
2019-04-25T09:27:59.161Z,64.12
2019-04-25T09:29:16.315Z,64.31
2019-04-25T09:30:10.197Z,64.22
2019-04-25T09:31:15.701Z,64.59
2019-04-25T09:32:21.221Z,64.59
2019-04-25T09:33:26.726Z,64.50
2019-04-25T09:34:33.557Z,64.89
2019-04-25T09:35:37.767Z,62.96
2019-04-25T09:36:43.963Z,62.77
2019-04-25T09:37:48.789Z,63.16
2019-04-25T09:38:54.305Z,62.68
2019-04-25T09:39:59.832Z,64.31
2019-04-25T09:41:05.330Z,64.15
2019-04-25T09:42:10.842Z,64.53
2019-04-25T09:43:16.368Z,64.34
2019-04-25T09:44:21.878Z,63.86
2019-04-25T09:45:27.391Z,65.01
2019-04-25T09:46:34.201Z,65.69
2019-04-25T09:47:39.216Z,64.66
2019-04-25T09:48:44.587Z,63.70
2019-04-25T09:49:49.451Z,65.53
2019-04-25T09:50:54.972Z,65.17
2019-04-25T09:52:00.472Z,64.22
2019-04-25T09:53:05.994Z,62.19
2019-04-25T09:54:11.506Z,62.87
2019-04-25T09:55:17.015Z,62.48
2019-04-25T09:56:23.909Z,61.91
2019-04-25T09:57:28.052Z,62.23
2019-04-25T09:58:33.867Z,58.06
2019-04-25T09:59:39.378Z,60.97
2019-04-25T10:00:45.073Z,60.21
2019-04-25T10:01:50.110Z,60.97
2019-04-25T10:02:55.625Z,59.44
2019-04-25T10:04:01.143Z,60.88
2019-04-25T10:05:06.656Z,60.88
2019-04-25T10:06:13.351Z,60.66
2019-04-25T10:07:17.687Z,60.08
2019-04-25T10:08:24.239Z,61.07
2019-04-25T10:09:28.727Z,60.17
2019-04-25T10:10:34.247Z,60.17
2019-04-25T10:11:40.005Z,60.94
2019-04-25T10:12:45.363Z,61.33
2019-04-25T10:13:50.779Z,61.81
2019-04-25T10:14:56.290Z,61.71
2019-04-25T10:16:01.807Z,60.94
2019-04-25T10:17:07.329Z,61.52
2019-04-25T10:18:14.191Z,61.52
2019-04-25T10:19:18.350Z,62.68
2019-04-25T10:20:23.880Z,61.94
2019-04-25T10:21:29.387Z,62.32
2019-04-25T10:22:34.908Z,62.41
2019-04-25T10:23:40.415Z,62.03
2019-04-25T10:24:58.396Z,60.42
2019-04-25T10:25:51.447Z,59.56
2019-04-25T10:26:56.964Z,59.66
2019-04-25T10:28:04.282Z,59.85
2019-04-25T10:29:07.991Z,60.52
2019-04-25T10:30:17.858Z,59.56
2019-04-25T10:31:19.020Z,59.17
2019-04-25T10:32:24.535Z,59.97
2019-04-25T10:33:30.051Z,59.69
2019-04-25T10:34:35.578Z,58.72
2019-04-25T10:35:50.819Z,58.05
2019-04-25T10:36:46.837Z,56.99
2019-04-25T10:37:53.748Z,56.99
2019-04-25T10:39:07.509Z,58.15
2019-04-25T10:40:04.342Z,57.28
2019-04-25T10:41:08.674Z,57.47
2019-04-25T10:42:14.178Z,57.18
2019-04-25T10:43:21.648Z,56.51
2019-04-25T10:44:25.214Z,56.22
2019-04-25T10:45:30.726Z,56.44
2019-04-25T10:46:36.244Z,56.80
2019-04-25T10:47:41.760Z,56.82
2019-04-25T10:48:48.037Z,55.38
2019-04-25T10:49:53.693Z,57.12
2019-04-25T10:50:58.310Z,56.54
2019-04-25T10:52:03.831Z,57.12
2019-04-25T10:53:09.342Z,57.40
2019-04-25T10:54:14.860Z,57.12
2019-04-25T10:55:20.382Z,56.57
2019-04-25T10:56:25.891Z,55.99
2019-04-25T10:57:31.403Z,56.18
2019-04-25T10:58:36.920Z,54.74
2019-04-25T10:59:54.290Z,54.74
2019-04-25T11:00:48.668Z,53.77
2019-04-25T11:01:55.048Z,54.83
2019-04-25T11:02:58.985Z,54.35
2019-04-25T11:04:04.827Z,54.18
2019-04-25T11:05:10.041Z,53.96
2019-04-25T11:06:15.543Z,54.64
2019-04-25T11:07:21.070Z,54.18
2019-04-25T11:08:26.645Z,52.73
2019-04-25T11:09:32.081Z,53.13
2019-04-25T11:10:37.612Z,52.93
2019-04-25T11:11:43.151Z,53.99
2019-04-25T11:12:49.298Z,54.09
2019-04-25T11:13:55.377Z,54.69
2019-04-25T11:14:59.674Z,54.21
2019-04-25T11:16:05.198Z,53.63
2019-04-25T11:17:10.715Z,52.76
2019-04-25T11:18:16.232Z,51.51
2019-04-25T11:19:21.737Z,52.19
2019-04-25T11:20:27.253Z,51.61
2019-04-25T11:21:33.333Z,51.61
2019-04-25T11:22:38.319Z,53.15
2019-04-25T11:23:44.978Z,51.80
2019-04-25T11:24:49.323Z,52.47
2019-04-25T11:25:54.873Z,52.76
2019-04-25T11:27:00.348Z,54.05
2019-04-25T11:28:05.905Z,52.59
2019-04-25T11:29:11.388Z,50.38
2019-04-25T11:30:16.911Z,50.57
2019-04-25T11:31:23.508Z,51.44
2019-04-25T11:32:27.951Z,52.11
2019-04-25T11:33:33.529Z,50.38
2019-04-25T11:34:38.974Z,52.19
2019-04-25T11:35:47.504Z,51.51
2019-04-25T11:36:50.747Z,50.64
2019-04-25T11:37:55.525Z,50.74
2019-04-25T11:39:01.052Z,51.41
2019-04-25T11:40:06.566Z,50.06
2019-04-25T11:41:13.998Z,50.93
2019-04-25T11:42:17.590Z,50.26
2019-04-25T11:43:23.106Z,51.41
2019-04-25T11:44:28.627Z,51.68
2019-04-25T11:45:34.143Z,52.25
2019-04-25T11:46:39.657Z,51.68
2019-04-25T11:47:46.957Z,52.06
2019-04-25T11:48:50.693Z,52.06
2019-04-25T11:49:56.214Z,51.48
2019-04-25T11:51:01.719Z,52.55
2019-04-25T11:52:07.263Z,53.13
2019-04-25T11:53:12.779Z,53.51
2019-04-25T11:54:18.290Z,54.44
2019-04-25T11:55:23.978Z,53.99
2019-04-25T11:56:29.319Z,52.81
2019-04-25T11:57:34.846Z,52.45
2019-04-25T11:58:40.368Z,53.41
2019-04-25T11:59:48.872Z,52.52
2019-04-25T12:00:51.382Z,52.52
2019-04-25T12:01:57.385Z,51.94
2019-04-25T12:03:03.670Z,51.87
2019-04-25T12:04:07.936Z,50.69
2019-04-25T12:05:14.919Z,51.75
2019-04-25T12:06:18.967Z,52.81
2019-04-25T12:07:24.489Z,53.48
2019-04-25T12:08:30.000Z,54.06
2019-04-25T12:09:35.522Z,52.04
2019-04-25T12:10:41.034Z,51.00
2019-04-25T12:11:47.153Z,50.04
2019-04-25T12:12:53.503Z,51.58
2019-04-25T12:13:57.593Z,52.45
2019-04-25T12:15:04.446Z,50.32
2019-04-25T12:16:08.616Z,50.52
2019-04-25T12:17:14.132Z,51.68
2019-04-25T12:18:19.651Z,51.68
2019-04-25T12:19:35.019Z,50.90
2019-04-25T12:20:30.685Z,52.16
2019-04-25T12:21:36.199Z,51.87
2019-04-25T12:22:43.541Z,51.89
2019-04-25T12:23:47.789Z,52.19
2019-04-25T12:24:54.364Z,51.99
2019-04-25T12:25:58.269Z,49.90
2019-04-25T12:27:04.314Z,50.86
2019-04-25T12:28:09.307Z,51.05
2019-04-25T12:29:14.817Z,51.53
2019-04-25T12:30:20.336Z,54.05
2019-04-25T12:31:25.858Z,53.85
2019-04-25T12:32:31.374Z,52.01
2019-04-25T12:33:36.919Z,50.69
2019-04-25T12:34:42.406Z,52.43
2019-04-25T12:35:47.991Z,52.23
2019-04-25T12:36:54.449Z,52.33
2019-04-25T12:37:58.966Z,53.11
2019-04-25T12:39:04.477Z,52.81
2019-04-25T12:40:10.012Z,50.50
2019-04-25T12:41:15.516Z,52.04
2019-04-25T12:42:21.030Z,52.36
2019-04-25T12:43:26.551Z,52.17
2019-04-25T12:44:32.074Z,50.71
2019-04-25T12:45:37.607Z,50.01
2019-04-25T12:46:43.614Z,52.36
2019-04-25T12:47:48.613Z,49.55
2019-04-25T12:48:54.140Z,53.03
2019-04-25T12:49:59.649Z,51.78
2019-04-25T12:51:05.169Z,52.75
2019-04-25T12:52:10.695Z,52.17
2019-04-25T12:53:16.206Z,51.61
2019-04-25T12:54:21.730Z,50.84
2019-04-25T12:55:27.252Z,47.55
2019-04-25T12:56:34.106Z,47.94
2019-04-25T12:57:38.273Z,47.58
2019-04-25T12:58:43.794Z,49.02
2019-04-25T12:59:49.310Z,47.28
2019-04-25T13:00:58.479Z,47.77
2019-04-25T13:02:00.360Z,48.74
2019-04-25T13:03:06.965Z,49.22
2019-04-25T13:04:11.391Z,47.09
2019-04-25T13:05:16.916Z,45.83
2019-04-25T13:06:23.850Z,47.28
2019-04-25T13:07:27.953Z,46.42
2019-04-25T13:08:34.090Z,47.67
2019-04-25T13:09:38.988Z,47.58
2019-04-25T13:10:44.691Z,46.32
2019-04-25T13:11:50.021Z,46.61
2019-04-25T13:12:55.562Z,48.16
2019-04-25T13:14:01.056Z,48.93
2019-04-25T13:15:06.567Z,46.10
2019-04-25T13:16:13.172Z,46.68
2019-04-25T13:17:17.601Z,47.16
2019-04-25T13:18:23.133Z,47.07
2019-04-25T13:19:28.637Z,46.30
2019-04-25T13:20:34.162Z,46.30
2019-04-25T13:21:39.692Z,45.23
2019-04-25T13:22:45.197Z,44.36
2019-04-25T13:23:50.722Z,46.70
2019-04-25T13:24:56.339Z,48.93
2019-04-25T13:26:01.750Z,46.51
2019-04-25T13:27:07.878Z,49.02
2019-04-25T13:28:14.339Z,47.77
2019-04-25T13:29:18.302Z,45.74
2019-04-25T13:30:24.203Z,46.61
2019-04-25T13:31:29.353Z,46.03
2019-04-25T13:32:34.862Z,47.07
2019-04-25T13:33:40.386Z,46.88
2019-04-25T13:34:45.901Z,46.20
2019-04-25T13:35:51.426Z,46.10
2019-04-25T13:36:58.067Z,46.97
2019-04-25T13:38:02.454Z,46.75
2019-04-25T13:39:07.965Z,45.91
2019-04-25T13:40:16.222Z,46.08
2019-04-25T13:41:19.009Z,47.14
2019-04-25T13:42:24.536Z,47.14
2019-04-25T13:43:30.051Z,47.53
2019-04-25T13:44:35.576Z,47.53
2019-04-25T13:45:41.084Z,48.39
2019-04-25T13:46:46.603Z,48.97
2019-04-25T13:47:52.113Z,49.17
2019-04-25T13:48:57.636Z,48.97
2019-04-25T13:50:03.146Z,48.01
2019-04-25T13:51:08.679Z,47.72
2019-04-25T13:52:14.195Z,46.66
2019-04-25T13:53:19.888Z,47.07
2019-04-25T13:54:25.224Z,47.26
2019-04-25T13:55:30.755Z,49.10
2019-04-25T13:56:40.422Z,47.94
2019-04-25T13:57:41.774Z,46.68
2019-04-25T13:58:47.296Z,46.70
2019-04-25T13:59:54.093Z,46.20
2019-04-25T14:00:58.341Z,44.07
2019-04-25T14:02:04.109Z,45.04
2019-04-25T14:03:09.379Z,46.10